sensor_id;sensor_type;location;lat;lon;timestamp;temperature;humidity
42245;DHT22;27912;51.828;5.688;2024-03-07T00:00:16;4.50;99.90
42245;DHT22;27912;51.828;5.688;2024-03-07T00:02:47;4.50;99.90
42245;DHT22;27912;51.828;5.688;2024-03-07T00:05:14;4.40;99.90
42245;DHT22;27912;51.828;5.688;2024-03-07T00:07:40;4.40;99.90
42245;DHT22;27912;51.828;5.688;2024-03-07T00:10:07;4.40;99.90
42245;DHT22;27912;51.828;5.688;2024-03-07T00:12:37;4.30;99.90
42245;DHT22;27912;51.828;5.688;2024-03-07T00:15:07;4.30;99.90
42245;DHT22;27912;51.828;5.688;2024-03-07T00:17:32;4.30;99.90
42245;DHT22;27912;51.828;5.688;2024-03-07T00:19:58;4.30;99.90
42245;DHT22;27912;51.828;5.688;2024-03-07T00:22:24;4.20;99.90
42245;DHT22;27912;51.828;5.688;2024-03-07T00:24:55;4.20;99.90
42245;DHT22;27912;51.828;5.688;2024-03-07T00:27:21;4.20;99.90
42245;DHT22;27912;51.828;5.688;2024-03-07T00:29:48;4.20;99.90
42245;DHT22;27912;51.828;5.688;2024-03-07T00:32:22;4.20;99.90
42245;DHT22;27912;51.828;5.688;2024-03-07T00:34:49;4.20;99.90
42245;DHT22;27912;51.828;5.688;2024-03-07T00:37:15;4.10;99.90
42245;DHT22;27912;51.828;5.688;2024-03-07T00:39:41;4.20;99.90
42245;DHT22;27912;51.828;5.688;2024-03-07T00:42:07;4.10;99.90
42245;DHT22;27912;51.828;5.688;2024-03-07T00:44:33;4.10;99.90
42245;DHT22;27912;51.828;5.688;2024-03-07T00:47:00;4.10;99.90
42245;DHT22;27912;51.828;5.688;2024-03-07T00:49:27;4.10;99.90
42245;DHT22;27912;51.828;5.688;2024-03-07T00:51:53;4.20;99.90
42245;DHT22;27912;51.828;5.688;2024-03-07T00:54:19;4.10;99.90
42245;DHT22;27912;51.828;5.688;2024-03-07T00:56:45;4.10;99.90
42245;DHT22;27912;51.828;5.688;2024-03-07T00:59:17;4.00;99.90
42245;DHT22;27912;51.828;5.688;2024-03-07T01:01:43;4.00;99.90
42245;DHT22;27912;51.828;5.688;2024-03-07T01:04:09;4.00;99.90
42245;DHT22;27912;51.828;5.688;2024-03-07T01:06:35;3.90;99.90
42245;DHT22;27912;51.828;5.688;2024-03-07T01:09:04;3.90;99.90
42245;DHT22;27912;51.828;5.688;2024-03-07T01:11:30;3.90;99.90
42245;DHT22;27912;51.828;5.688;2024-03-07T01:13:55;3.80;99.90
42245;DHT22;27912;51.828;5.688;2024-03-07T01:16:22;3.80;99.90
42245;DHT22;27912;51.828;5.688;2024-03-07T01:18:47;3.80;99.90
42245;DHT22;27912;51.828;5.688;2024-03-07T01:21:14;3.80;99.90
42245;DHT22;27912;51.828;5.688;2024-03-07T01:23:40;3.80;99.90
42245;DHT22;27912;51.828;5.688;2024-03-07T01:26:06;3.80;99.90
42245;DHT22;27912;51.828;5.688;2024-03-07T01:28:32;3.80;99.90
42245;DHT22;27912;51.828;5.688;2024-03-07T01:30:58;3.70;99.90
42245;DHT22;27912;51.828;5.688;2024-03-07T01:33:24;3.70;99.90
42245;DHT22;27912;51.828;5.688;2024-03-07T01:35:50;3.70;99.90
42245;DHT22;27912;51.828;5.688;2024-03-07T01:38:16;3.70;99.90
42245;DHT22;27912;51.828;5.688;2024-03-07T01:40:42;3.70;99.90
42245;DHT22;27912;51.828;5.688;2024-03-07T01:43:09;3.70;99.90
42245;DHT22;27912;51.828;5.688;2024-03-07T01:45:36;3.70;99.90
42245;DHT22;27912;51.828;5.688;2024-03-07T01:48:03;3.60;99.90
42245;DHT22;27912;51.828;5.688;2024-03-07T01:50:30;3.60;99.90
42245;DHT22;27912;51.828;5.688;2024-03-07T01:52:55;3.60;99.90
42245;DHT22;27912;51.828;5.688;2024-03-07T01:55:22;3.50;99.90
42245;DHT22;27912;51.828;5.688;2024-03-07T01:57:49;3.40;99.90
42245;DHT22;27912;51.828;5.688;2024-03-07T02:00:14;3.30;99.90
42245;DHT22;27912;51.828;5.688;2024-03-07T02:02:40;3.30;99.90
42245;DHT22;27912;51.828;5.688;2024-03-07T02:05:06;3.20;99.90
42245;DHT22;27912;51.828;5.688;2024-03-07T02:07:32;3.20;99.90
42245;DHT22;27912;51.828;5.688;2024-03-07T02:10:02;3.20;99.90
42245;DHT22;27912;51.828;5.688;2024-03-07T02:12:29;3.20;99.90
42245;DHT22;27912;51.828;5.688;2024-03-07T02:14:56;3.20;99.90
42245;DHT22;27912;51.828;5.688;2024-03-07T02:17:23;3.20;99.90
42245;DHT22;27912;51.828;5.688;2024-03-07T02:19:49;3.20;99.90
42245;DHT22;27912;51.828;5.688;2024-03-07T02:22:16;3.20;99.90
42245;DHT22;27912;51.828;5.688;2024-03-07T02:24:41;3.20;99.90
42245;DHT22;27912;51.828;5.688;2024-03-07T02:27:07;3.30;99.90
42245;DHT22;27912;51.828;5.688;2024-03-07T02:29:35;3.30;99.90
42245;DHT22;27912;51.828;5.688;2024-03-07T02:32:02;3.30;99.90
42245;DHT22;27912;51.828;5.688;2024-03-07T02:34:28;3.30;99.90
42245;DHT22;27912;51.828;5.688;2024-03-07T02:36:54;3.40;99.90
42245;DHT22;27912;51.828;5.688;2024-03-07T02:39:19;3.40;99.90
42245;DHT22;27912;51.828;5.688;2024-03-07T02:41:46;3.40;99.90
42245;DHT22;27912;51.828;5.688;2024-03-07T02:44:13;3.40;99.90
42245;DHT22;27912;51.828;5.688;2024-03-07T02:46:39;3.50;99.90
42245;DHT22;27912;51.828;5.688;2024-03-07T02:49:05;3.40;99.90
42245;DHT22;27912;51.828;5.688;2024-03-07T02:51:31;3.40;99.90
42245;DHT22;27912;51.828;5.688;2024-03-07T02:53:57;3.40;99.90
42245;DHT22;27912;51.828;5.688;2024-03-07T02:56:23;3.40;99.90
42245;DHT22;27912;51.828;5.688;2024-03-07T02:58:49;3.40;99.90
42245;DHT22;27912;51.828;5.688;2024-03-07T03:01:14;3.30;99.90
42245;DHT22;27912;51.828;5.688;2024-03-07T03:03:40;3.30;99.90
42245;DHT22;27912;51.828;5.688;2024-03-07T03:06:08;3.30;99.90
42245;DHT22;27912;51.828;5.688;2024-03-07T03:08:34;3.30;99.90
42245;DHT22;27912;51.828;5.688;2024-03-07T03:11:00;3.30;99.90
42245;DHT22;27912;51.828;5.688;2024-03-07T03:13:26;3.40;99.90
42245;DHT22;27912;51.828;5.688;2024-03-07T03:15:54;3.30;99.90
42245;DHT22;27912;51.828;5.688;2024-03-07T03:18:21;3.40;99.90
42245;DHT22;27912;51.828;5.688;2024-03-07T03:20:47;3.30;99.90
42245;DHT22;27912;51.828;5.688;2024-03-07T03:23:13;3.30;99.90
42245;DHT22;27912;51.828;5.688;2024-03-07T03:25:40;3.30;99.90
42245;DHT22;27912;51.828;5.688;2024-03-07T03:28:06;3.30;99.90
42245;DHT22;27912;51.828;5.688;2024-03-07T03:30:36;3.30;99.90
42245;DHT22;27912;51.828;5.688;2024-03-07T03:33:02;3.30;99.90
42245;DHT22;27912;51.828;5.688;2024-03-07T03:35:28;3.20;99.90
42245;DHT22;27912;51.828;5.688;2024-03-07T03:37:53;3.20;99.90
42245;DHT22;27912;51.828;5.688;2024-03-07T03:40:19;3.30;99.90
42245;DHT22;27912;51.828;5.688;2024-03-07T03:42:44;3.20;99.90
42245;DHT22;27912;51.828;5.688;2024-03-07T03:45:10;3.20;99.90
42245;DHT22;27912;51.828;5.688;2024-03-07T03:47:41;3.20;99.90
42245;DHT22;27912;51.828;5.688;2024-03-07T03:50:09;3.20;99.90
42245;DHT22;27912;51.828;5.688;2024-03-07T03:52:35;3.20;99.90
42245;DHT22;27912;51.828;5.688;2024-03-07T03:55:02;3.20;99.90
42245;DHT22;27912;51.828;5.688;2024-03-07T03:57:28;3.20;99.90
42245;DHT22;27912;51.828;5.688;2024-03-07T03:59:57;3.20;99.90
42245;DHT22;27912;51.828;5.688;2024-03-07T04:02:23;3.20;99.90
42245;DHT22;27912;51.828;5.688;2024-03-07T04:04:50;3.10;99.90
42245;DHT22;27912;51.828;5.688;2024-03-07T04:07:16;3.10;99.90
42245;DHT22;27912;51.828;5.688;2024-03-07T04:09:42;3.10;99.90
42245;DHT22;27912;51.828;5.688;2024-03-07T04:12:09;3.10;99.90
42245;DHT22;27912;51.828;5.688;2024-03-07T04:14:41;3.10;99.90
42245;DHT22;27912;51.828;5.688;2024-03-07T04:17:07;3.10;99.90
42245;DHT22;27912;51.828;5.688;2024-03-07T04:19:36;3.10;99.90
42245;DHT22;27912;51.828;5.688;2024-03-07T04:22:04;3.00;99.90
42245;DHT22;27912;51.828;5.688;2024-03-07T04:24:31;3.00;99.90
42245;DHT22;27912;51.828;5.688;2024-03-07T04:26:59;3.00;99.90
42245;DHT22;27912;51.828;5.688;2024-03-07T04:29:25;3.00;99.90
42245;DHT22;27912;51.828;5.688;2024-03-07T04:31:51;3.00;99.90
42245;DHT22;27912;51.828;5.688;2024-03-07T04:34:17;3.00;99.90
42245;DHT22;27912;51.828;5.688;2024-03-07T04:36:42;3.00;99.90
42245;DHT22;27912;51.828;5.688;2024-03-07T04:39:08;3.00;99.90
42245;DHT22;27912;51.828;5.688;2024-03-07T04:41:45;3.00;99.90
42245;DHT22;27912;51.828;5.688;2024-03-07T04:44:10;3.00;99.90
42245;DHT22;27912;51.828;5.688;2024-03-07T04:46:36;3.00;99.90
42245;DHT22;27912;51.828;5.688;2024-03-07T04:49:01;3.00;99.90
42245;DHT22;27912;51.828;5.688;2024-03-07T04:51:27;3.00;99.90
42245;DHT22;27912;51.828;5.688;2024-03-07T04:53:53;3.00;99.90
42245;DHT22;27912;51.828;5.688;2024-03-07T04:56:18;3.00;99.90
42245;DHT22;27912;51.828;5.688;2024-03-07T04:58:44;2.90;99.90
42245;DHT22;27912;51.828;5.688;2024-03-07T05:01:10;3.00;99.90
42245;DHT22;27912;51.828;5.688;2024-03-07T05:03:35;2.90;99.90
42245;DHT22;27912;51.828;5.688;2024-03-07T05:06:01;2.90;99.90
42245;DHT22;27912;51.828;5.688;2024-03-07T05:08:26;2.90;99.90
42245;DHT22;27912;51.828;5.688;2024-03-07T05:10:52;2.90;99.90
42245;DHT22;27912;51.828;5.688;2024-03-07T05:13:17;2.90;99.90
42245;DHT22;27912;51.828;5.688;2024-03-07T05:15:43;2.90;99.90
42245;DHT22;27912;51.828;5.688;2024-03-07T05:18:09;2.80;99.90
42245;DHT22;27912;51.828;5.688;2024-03-07T05:20:35;2.90;99.90
42245;DHT22;27912;51.828;5.688;2024-03-07T05:23:00;2.80;99.90
42245;DHT22;27912;51.828;5.688;2024-03-07T05:25:26;2.80;99.90
42245;DHT22;27912;51.828;5.688;2024-03-07T05:27:52;2.80;99.90
42245;DHT22;27912;51.828;5.688;2024-03-07T05:30:18;2.80;99.90
42245;DHT22;27912;51.828;5.688;2024-03-07T05:32:44;2.80;99.90
42245;DHT22;27912;51.828;5.688;2024-03-07T05:35:10;2.80;99.90
42245;DHT22;27912;51.828;5.688;2024-03-07T05:37:36;2.70;99.90
42245;DHT22;27912;51.828;5.688;2024-03-07T05:40:02;2.70;99.90
42245;DHT22;27912;51.828;5.688;2024-03-07T05:42:29;2.70;99.90
42245;DHT22;27912;51.828;5.688;2024-03-07T05:44:55;2.70;99.90
42245;DHT22;27912;51.828;5.688;2024-03-07T05:47:20;2.70;99.90
42245;DHT22;27912;51.828;5.688;2024-03-07T05:49:47;2.70;99.90
42245;DHT22;27912;51.828;5.688;2024-03-07T05:52:12;2.70;99.90
42245;DHT22;27912;51.828;5.688;2024-03-07T05:54:38;2.60;99.90
42245;DHT22;27912;51.828;5.688;2024-03-07T05:57:04;2.70;99.90
42245;DHT22;27912;51.828;5.688;2024-03-07T05:59:32;2.70;99.90
42245;DHT22;27912;51.828;5.688;2024-03-07T06:01:57;2.60;99.90
42245;DHT22;27912;51.828;5.688;2024-03-07T06:04:23;2.60;99.90
42245;DHT22;27912;51.828;5.688;2024-03-07T06:06:49;2.60;99.90
42245;DHT22;27912;51.828;5.688;2024-03-07T06:09:15;2.50;99.90
42245;DHT22;27912;51.828;5.688;2024-03-07T06:11:46;2.50;99.90
42245;DHT22;27912;51.828;5.688;2024-03-07T06:14:12;2.50;99.90
42245;DHT22;27912;51.828;5.688;2024-03-07T06:16:39;2.50;99.90
42245;DHT22;27912;51.828;5.688;2024-03-07T06:19:06;2.60;99.90
42245;DHT22;27912;51.828;5.688;2024-03-07T06:21:33;2.50;99.90
42245;DHT22;27912;51.828;5.688;2024-03-07T06:24:00;2.50;99.90
42245;DHT22;27912;51.828;5.688;2024-03-07T06:29:25;2.50;99.90
42245;DHT22;27912;51.828;5.688;2024-03-07T06:31:51;2.50;99.90
42245;DHT22;27912;51.828;5.688;2024-03-07T06:34:19;2.50;99.90
42245;DHT22;27912;51.828;5.688;2024-03-07T06:36:44;2.50;99.90
42245;DHT22;27912;51.828;5.688;2024-03-07T06:39:10;2.50;99.90
42245;DHT22;27912;51.828;5.688;2024-03-07T06:41:36;2.50;99.90
42245;DHT22;27912;51.828;5.688;2024-03-07T06:44:02;2.50;99.90
42245;DHT22;27912;51.828;5.688;2024-03-07T06:46:28;2.50;99.90
42245;DHT22;27912;51.828;5.688;2024-03-07T06:48:55;2.50;99.90
42245;DHT22;27912;51.828;5.688;2024-03-07T06:51:22;2.50;99.90
42245;DHT22;27912;51.828;5.688;2024-03-07T06:53:48;2.60;99.90
42245;DHT22;27912;51.828;5.688;2024-03-07T06:56:14;2.60;99.90
42245;DHT22;27912;51.828;5.688;2024-03-07T06:58:41;2.60;99.90
42245;DHT22;27912;51.828;5.688;2024-03-07T07:01:08;2.60;99.90
42245;DHT22;27912;51.828;5.688;2024-03-07T07:03:36;2.70;99.90
42245;DHT22;27912;51.828;5.688;2024-03-07T07:06:02;2.70;99.90
42245;DHT22;27912;51.828;5.688;2024-03-07T07:08:28;2.70;99.90
42245;DHT22;27912;51.828;5.688;2024-03-07T07:10:56;2.80;99.90
42245;DHT22;27912;51.828;5.688;2024-03-07T07:13:23;2.80;99.90
42245;DHT22;27912;51.828;5.688;2024-03-07T07:15:52;2.90;99.90
42245;DHT22;27912;51.828;5.688;2024-03-07T07:18:19;2.90;99.90
42245;DHT22;27912;51.828;5.688;2024-03-07T07:20:44;3.00;99.90
42245;DHT22;27912;51.828;5.688;2024-03-07T07:23:10;3.00;99.90
42245;DHT22;27912;51.828;5.688;2024-03-07T07:25:35;3.10;99.90
42245;DHT22;27912;51.828;5.688;2024-03-07T07:28:02;3.20;99.90
42245;DHT22;27912;51.828;5.688;2024-03-07T07:30:30;3.20;99.90
42245;DHT22;27912;51.828;5.688;2024-03-07T07:32:55;3.30;99.90
42245;DHT22;27912;51.828;5.688;2024-03-07T07:35:21;3.50;99.90
42245;DHT22;27912;51.828;5.688;2024-03-07T07:37:49;3.60;99.90
42245;DHT22;27912;51.828;5.688;2024-03-07T07:40:17;3.70;99.90
42245;DHT22;27912;51.828;5.688;2024-03-07T07:42:47;3.80;99.90
42245;DHT22;27912;51.828;5.688;2024-03-07T07:45:15;4.00;99.90
42245;DHT22;27912;51.828;5.688;2024-03-07T07:47:48;4.10;99.90
42245;DHT22;27912;51.828;5.688;2024-03-07T07:50:18;4.20;99.90
42245;DHT22;27912;51.828;5.688;2024-03-07T07:52:46;4.30;99.90
42245;DHT22;27912;51.828;5.688;2024-03-07T07:55:19;4.40;99.90
42245;DHT22;27912;51.828;5.688;2024-03-07T07:57:47;4.40;99.90
42245;DHT22;27912;51.828;5.688;2024-03-07T08:00:17;4.50;99.90
42245;DHT22;27912;51.828;5.688;2024-03-07T08:02:55;4.50;99.90
42245;DHT22;27912;51.828;5.688;2024-03-07T08:05:23;4.50;99.90
42245;DHT22;27912;51.828;5.688;2024-03-07T08:07:50;4.60;99.90
42245;DHT22;27912;51.828;5.688;2024-03-07T08:10:17;4.60;99.90
42245;DHT22;27912;51.828;5.688;2024-03-07T08:12:43;4.70;99.90
42245;DHT22;27912;51.828;5.688;2024-03-07T08:15:13;4.70;99.90
42245;DHT22;27912;51.828;5.688;2024-03-07T08:17:46;4.70;99.90
42245;DHT22;27912;51.828;5.688;2024-03-07T08:20:14;4.80;99.90
42245;DHT22;27912;51.828;5.688;2024-03-07T08:22:40;4.80;99.90
42245;DHT22;27912;51.828;5.688;2024-03-07T08:25:16;4.90;99.90
42245;DHT22;27912;51.828;5.688;2024-03-07T08:27:45;5.00;99.90
42245;DHT22;27912;51.828;5.688;2024-03-07T08:30:11;5.00;99.90
42245;DHT22;27912;51.828;5.688;2024-03-07T08:32:51;5.10;99.90
42245;DHT22;27912;51.828;5.688;2024-03-07T08:35:19;5.20;99.90
42245;DHT22;27912;51.828;5.688;2024-03-07T08:37:46;5.20;99.90
42245;DHT22;27912;51.828;5.688;2024-03-07T08:40:18;5.30;99.90
42245;DHT22;27912;51.828;5.688;2024-03-07T08:42:46;5.40;99.90
42245;DHT22;27912;51.828;5.688;2024-03-07T08:45:12;5.40;99.90
42245;DHT22;27912;51.828;5.688;2024-03-07T08:47:43;5.50;99.90
42245;DHT22;27912;51.828;5.688;2024-03-07T08:50:08;5.50;99.90
42245;DHT22;27912;51.828;5.688;2024-03-07T08:52:35;5.60;99.90
42245;DHT22;27912;51.828;5.688;2024-03-07T08:55:06;5.70;99.90
42245;DHT22;27912;51.828;5.688;2024-03-07T08:57:35;5.80;99.90
42245;DHT22;27912;51.828;5.688;2024-03-07T09:00:02;5.90;99.90
42245;DHT22;27912;51.828;5.688;2024-03-07T09:02:34;6.00;99.90
42245;DHT22;27912;51.828;5.688;2024-03-07T09:05:00;6.10;99.90
42245;DHT22;27912;51.828;5.688;2024-03-07T09:07:26;6.20;99.90
42245;DHT22;27912;51.828;5.688;2024-03-07T09:09:51;6.30;99.90
42245;DHT22;27912;51.828;5.688;2024-03-07T09:12:17;6.30;99.90
42245;DHT22;27912;51.828;5.688;2024-03-07T09:14:45;6.30;99.90
42245;DHT22;27912;51.828;5.688;2024-03-07T09:17:11;6.40;99.90
42245;DHT22;27912;51.828;5.688;2024-03-07T09:19:37;6.50;99.90
42245;DHT22;27912;51.828;5.688;2024-03-07T09:22:03;6.60;99.90
42245;DHT22;27912;51.828;5.688;2024-03-07T09:24:30;6.60;99.90
42245;DHT22;27912;51.828;5.688;2024-03-07T09:26:56;6.60;99.90
42245;DHT22;27912;51.828;5.688;2024-03-07T09:29:22;6.70;99.90
42245;DHT22;27912;51.828;5.688;2024-03-07T09:31:51;6.70;99.90
42245;DHT22;27912;51.828;5.688;2024-03-07T09:34:18;6.80;99.90
42245;DHT22;27912;51.828;5.688;2024-03-07T09:36:44;6.80;99.90
42245;DHT22;27912;51.828;5.688;2024-03-07T09:39:10;6.80;99.90
42245;DHT22;27912;51.828;5.688;2024-03-07T09:41:38;6.90;99.90
42245;DHT22;27912;51.828;5.688;2024-03-07T09:44:05;7.00;99.90
42245;DHT22;27912;51.828;5.688;2024-03-07T09:46:33;7.10;99.90
42245;DHT22;27912;51.828;5.688;2024-03-07T09:49:00;7.20;99.90
42245;DHT22;27912;51.828;5.688;2024-03-07T09:51:27;7.30;99.90
42245;DHT22;27912;51.828;5.688;2024-03-07T09:53:53;7.30;99.90
42245;DHT22;27912;51.828;5.688;2024-03-07T09:56:24;7.40;99.90
42245;DHT22;27912;51.828;5.688;2024-03-07T09:58:51;7.40;99.90
42245;DHT22;27912;51.828;5.688;2024-03-07T10:01:20;7.50;99.90
42245;DHT22;27912;51.828;5.688;2024-03-07T10:03:50;7.60;99.90
42245;DHT22;27912;51.828;5.688;2024-03-07T10:06:19;7.60;99.90
42245;DHT22;27912;51.828;5.688;2024-03-07T10:08:47;7.60;99.90
42245;DHT22;27912;51.828;5.688;2024-03-07T10:11:12;7.60;99.90
42245;DHT22;27912;51.828;5.688;2024-03-07T10:13:40;7.80;99.90
42245;DHT22;27912;51.828;5.688;2024-03-07T10:16:07;7.90;99.90
42245;DHT22;27912;51.828;5.688;2024-03-07T10:18:41;8.00;99.90
42245;DHT22;27912;51.828;5.688;2024-03-07T10:21:06;8.10;99.90
42245;DHT22;27912;51.828;5.688;2024-03-07T10:23:32;8.10;99.90
42245;DHT22;27912;51.828;5.688;2024-03-07T10:26:00;8.20;99.90
42245;DHT22;27912;51.828;5.688;2024-03-07T10:28:27;8.20;99.90
42245;DHT22;27912;51.828;5.688;2024-03-07T10:30:53;8.20;99.90
42245;DHT22;27912;51.828;5.688;2024-03-07T10:33:19;8.30;99.90
42245;DHT22;27912;51.828;5.688;2024-03-07T10:35:49;8.20;99.90
42245;DHT22;27912;51.828;5.688;2024-03-07T10:38:15;8.30;99.90
42245;DHT22;27912;51.828;5.688;2024-03-07T10:40:40;8.40;99.90
42245;DHT22;27912;51.828;5.688;2024-03-07T10:43:10;8.50;99.90
42245;DHT22;27912;51.828;5.688;2024-03-07T10:45:47;8.40;99.90
42245;DHT22;27912;51.828;5.688;2024-03-07T10:48:18;8.50;99.90
42245;DHT22;27912;51.828;5.688;2024-03-07T10:51:10;8.50;99.90
42245;DHT22;27912;51.828;5.688;2024-03-07T10:53:40;8.30;99.90
42245;DHT22;27912;51.828;5.688;2024-03-07T10:56:34;8.30;99.90
42245;DHT22;27912;51.828;5.688;2024-03-07T10:59:18;8.40;99.90
42245;DHT22;27912;51.828;5.688;2024-03-07T11:01:59;8.50;99.90
42245;DHT22;27912;51.828;5.688;2024-03-07T11:04:25;8.50;99.90
42245;DHT22;27912;51.828;5.688;2024-03-07T11:06:50;8.50;99.90
42245;DHT22;27912;51.828;5.688;2024-03-07T11:09:17;8.60;99.90
42245;DHT22;27912;51.828;5.688;2024-03-07T11:11:49;8.70;99.90
42245;DHT22;27912;51.828;5.688;2024-03-07T11:14:15;8.70;99.90
42245;DHT22;27912;51.828;5.688;2024-03-07T11:16:42;8.60;99.90
42245;DHT22;27912;51.828;5.688;2024-03-07T11:19:28;8.60;99.90
42245;DHT22;27912;51.828;5.688;2024-03-07T11:21:57;8.70;99.90
42245;DHT22;27912;51.828;5.688;2024-03-07T11:24:30;8.70;99.90
42245;DHT22;27912;51.828;5.688;2024-03-07T11:27:02;8.70;99.90
42245;DHT22;27912;51.828;5.688;2024-03-07T11:29:46;8.80;99.90
42245;DHT22;27912;51.828;5.688;2024-03-07T11:32:15;8.80;99.90
42245;DHT22;27912;51.828;5.688;2024-03-07T11:34:43;8.80;99.90
42245;DHT22;27912;51.828;5.688;2024-03-07T11:37:20;8.80;99.90
42245;DHT22;27912;51.828;5.688;2024-03-07T11:40:02;8.80;99.90
42245;DHT22;27912;51.828;5.688;2024-03-07T11:42:33;8.90;99.90
42245;DHT22;27912;51.828;5.688;2024-03-07T11:45:02;9.10;99.90
42245;DHT22;27912;51.828;5.688;2024-03-07T11:47:38;9.10;99.90
42245;DHT22;27912;51.828;5.688;2024-03-07T11:50:05;9.10;99.90
42245;DHT22;27912;51.828;5.688;2024-03-07T11:52:36;9.00;99.90
42245;DHT22;27912;51.828;5.688;2024-03-07T11:55:04;9.00;99.90
42245;DHT22;27912;51.828;5.688;2024-03-07T11:57:30;9.20;99.90
42245;DHT22;27912;51.828;5.688;2024-03-07T11:59:59;9.30;99.90
42245;DHT22;27912;51.828;5.688;2024-03-07T12:02:33;9.30;99.90
42245;DHT22;27912;51.828;5.688;2024-03-07T12:04:59;9.40;99.90
42245;DHT22;27912;51.828;5.688;2024-03-07T12:07:26;9.40;99.90
42245;DHT22;27912;51.828;5.688;2024-03-07T12:09:52;9.40;99.90
42245;DHT22;27912;51.828;5.688;2024-03-07T12:12:21;9.50;99.90
42245;DHT22;27912;51.828;5.688;2024-03-07T12:14:48;9.60;99.90
42245;DHT22;27912;51.828;5.688;2024-03-07T12:17:14;9.60;99.90
42245;DHT22;27912;51.828;5.688;2024-03-07T12:19:43;9.60;99.90
42245;DHT22;27912;51.828;5.688;2024-03-07T12:22:10;9.60;99.90
42245;DHT22;27912;51.828;5.688;2024-03-07T12:24:39;9.70;99.90
42245;DHT22;27912;51.828;5.688;2024-03-07T12:27:12;9.70;99.90
42245;DHT22;27912;51.828;5.688;2024-03-07T12:29:39;9.70;99.90
42245;DHT22;27912;51.828;5.688;2024-03-07T12:32:06;9.70;99.90
42245;DHT22;27912;51.828;5.688;2024-03-07T12:34:34;9.60;99.90
42245;DHT22;27912;51.828;5.688;2024-03-07T12:37:03;9.70;99.90
42245;DHT22;27912;51.828;5.688;2024-03-07T12:39:32;9.70;99.90
42245;DHT22;27912;51.828;5.688;2024-03-07T12:42:04;9.70;99.90
42245;DHT22;27912;51.828;5.688;2024-03-07T12:44:42;9.80;99.90
42245;DHT22;27912;51.828;5.688;2024-03-07T12:47:15;9.90;99.90
42245;DHT22;27912;51.828;5.688;2024-03-07T12:49:42;9.80;99.90
42245;DHT22;27912;51.828;5.688;2024-03-07T12:52:07;9.80;99.90
42245;DHT22;27912;51.828;5.688;2024-03-07T12:54:36;9.80;99.90
42245;DHT22;27912;51.828;5.688;2024-03-07T12:57:11;9.80;99.90
42245;DHT22;27912;51.828;5.688;2024-03-07T12:59:40;9.90;99.90
42245;DHT22;27912;51.828;5.688;2024-03-07T13:02:10;9.80;99.90
42245;DHT22;27912;51.828;5.688;2024-03-07T13:04:36;9.70;99.90
42245;DHT22;27912;51.828;5.688;2024-03-07T13:07:06;9.70;99.90
42245;DHT22;27912;51.828;5.688;2024-03-07T13:09:35;9.70;99.90
42245;DHT22;27912;51.828;5.688;2024-03-07T13:12:01;9.60;99.90
42245;DHT22;27912;51.828;5.688;2024-03-07T13:14:31;9.60;99.90
42245;DHT22;27912;51.828;5.688;2024-03-07T13:17:01;9.80;99.90
42245;DHT22;27912;51.828;5.688;2024-03-07T13:19:28;9.90;99.90
42245;DHT22;27912;51.828;5.688;2024-03-07T13:21:54;10.00;99.90
42245;DHT22;27912;51.828;5.688;2024-03-07T13:24:21;10.00;99.90
42245;DHT22;27912;51.828;5.688;2024-03-07T13:26:47;10.10;99.90
42245;DHT22;27912;51.828;5.688;2024-03-07T13:29:16;10.10;99.90
42245;DHT22;27912;51.828;5.688;2024-03-07T13:31:45;10.10;99.90
42245;DHT22;27912;51.828;5.688;2024-03-07T13:34:11;10.00;99.90
42245;DHT22;27912;51.828;5.688;2024-03-07T13:36:40;10.10;99.90
42245;DHT22;27912;51.828;5.688;2024-03-07T13:39:07;10.10;99.90
42245;DHT22;27912;51.828;5.688;2024-03-07T13:41:40;10.10;99.90
42245;DHT22;27912;51.828;5.688;2024-03-07T13:44:06;10.00;99.90
42245;DHT22;27912;51.828;5.688;2024-03-07T13:46:32;9.90;99.90
42245;DHT22;27912;51.828;5.688;2024-03-07T13:49:02;10.00;99.90
42245;DHT22;27912;51.828;5.688;2024-03-07T13:51:43;10.00;99.90
42245;DHT22;27912;51.828;5.688;2024-03-07T13:54:28;10.00;99.90
42245;DHT22;27912;51.828;5.688;2024-03-07T13:59:59;9.90;99.90
42245;DHT22;27912;51.828;5.688;2024-03-07T14:05:26;9.70;99.90
42245;DHT22;27912;51.828;5.688;2024-03-07T14:17:32;10.20;99.90
42245;DHT22;27912;51.828;5.688;2024-03-07T14:20:46;10.40;99.90
42245;DHT22;27912;51.828;5.688;2024-03-07T14:23:33;10.50;99.90
42245;DHT22;27912;51.828;5.688;2024-03-07T14:29:12;10.70;99.90
42245;DHT22;27912;51.828;5.688;2024-03-07T14:31:42;10.60;99.90
42245;DHT22;27912;51.828;5.688;2024-03-07T14:36:49;10.20;99.90
42245;DHT22;27912;51.828;5.688;2024-03-07T14:39:16;10.00;99.90
42245;DHT22;27912;51.828;5.688;2024-03-07T14:41:58;9.90;99.90
42245;DHT22;27912;51.828;5.688;2024-03-07T14:44:27;9.80;99.90
42245;DHT22;27912;51.828;5.688;2024-03-07T14:46:59;9.90;99.90
42245;DHT22;27912;51.828;5.688;2024-03-07T14:49:26;9.90;99.90
42245;DHT22;27912;51.828;5.688;2024-03-07T14:51:53;9.80;99.90
42245;DHT22;27912;51.828;5.688;2024-03-07T14:54:22;9.80;99.90
42245;DHT22;27912;51.828;5.688;2024-03-07T14:56:48;9.80;99.90
42245;DHT22;27912;51.828;5.688;2024-03-07T14:59:15;9.90;99.90
42245;DHT22;27912;51.828;5.688;2024-03-07T15:01:41;9.90;99.90
42245;DHT22;27912;51.828;5.688;2024-03-07T15:04:07;9.90;99.90
42245;DHT22;27912;51.828;5.688;2024-03-07T15:06:36;10.00;99.90
42245;DHT22;27912;51.828;5.688;2024-03-07T15:09:02;10.10;99.90
42245;DHT22;27912;51.828;5.688;2024-03-07T15:11:34;10.20;99.90
42245;DHT22;27912;51.828;5.688;2024-03-07T15:14:00;10.20;99.90
42245;DHT22;27912;51.828;5.688;2024-03-07T15:16:30;10.20;99.90
42245;DHT22;27912;51.828;5.688;2024-03-07T15:19:00;10.10;99.90
42245;DHT22;27912;51.828;5.688;2024-03-07T15:21:26;10.00;99.90
42245;DHT22;27912;51.828;5.688;2024-03-07T15:23:54;9.80;99.90
42245;DHT22;27912;51.828;5.688;2024-03-07T15:26:20;9.70;99.90
42245;DHT22;27912;51.828;5.688;2024-03-07T15:28:49;9.70;99.90
42245;DHT22;27912;51.828;5.688;2024-03-07T15:31:16;9.70;99.90
42245;DHT22;27912;51.828;5.688;2024-03-07T15:33:47;9.70;99.90
42245;DHT22;27912;51.828;5.688;2024-03-07T15:36:15;9.60;99.90
42245;DHT22;27912;51.828;5.688;2024-03-07T15:38:41;9.50;99.90
42245;DHT22;27912;51.828;5.688;2024-03-07T15:41:07;9.40;99.90
42245;DHT22;27912;51.828;5.688;2024-03-07T15:43:35;9.30;99.90
42245;DHT22;27912;51.828;5.688;2024-03-07T15:46:02;9.30;99.90
42245;DHT22;27912;51.828;5.688;2024-03-07T15:48:29;9.20;99.90
42245;DHT22;27912;51.828;5.688;2024-03-07T15:50:56;9.20;99.90
42245;DHT22;27912;51.828;5.688;2024-03-07T15:53:25;9.10;99.90
42245;DHT22;27912;51.828;5.688;2024-03-07T15:55:51;9.10;99.90
42245;DHT22;27912;51.828;5.688;2024-03-07T15:58:16;9.10;99.90
42245;DHT22;27912;51.828;5.688;2024-03-07T16:00:45;9.20;99.90
42245;DHT22;27912;51.828;5.688;2024-03-07T16:03:13;9.20;99.90
42245;DHT22;27912;51.828;5.688;2024-03-07T16:05:41;9.30;99.90
42245;DHT22;27912;51.828;5.688;2024-03-07T16:08:09;9.30;99.90
42245;DHT22;27912;51.828;5.688;2024-03-07T16:10:37;9.30;99.90
42245;DHT22;27912;51.828;5.688;2024-03-07T16:13:06;9.20;99.90